sensor_id;sensor_type;location;lat;lon;timestamp;temperature;humidity
64652;HTU21D;51062;45.120;37.660;2023-12-20T00:01:48;7.57;92.98
64652;HTU21D;51062;45.120;37.660;2023-12-20T00:04:15;7.55;92.88
64652;HTU21D;51062;45.120;37.660;2023-12-20T00:06:41;7.53;92.83
64652;HTU21D;51062;45.120;37.660;2023-12-20T00:09:07;7.54;92.86
64652;HTU21D;51062;45.120;37.660;2023-12-20T00:11:32;7.54;92.90
64652;HTU21D;51062;45.120;37.660;2023-12-20T00:13:58;7.56;92.89
64652;HTU21D;51062;45.120;37.660;2023-12-20T00:16:24;7.55;92.88
64652;HTU21D;51062;45.120;37.660;2023-12-20T00:18:50;7.56;92.91
64652;HTU21D;51062;45.120;37.660;2023-12-20T00:21:16;7.56;92.91
64652;HTU21D;51062;45.120;37.660;2023-12-20T00:23:42;7.56;92.92
64652;HTU21D;51062;45.120;37.660;2023-12-20T00:26:08;7.56;92.95
64652;HTU21D;51062;45.120;37.660;2023-12-20T00:28:34;7.55;92.87
64652;HTU21D;51062;45.120;37.660;2023-12-20T00:31:00;7.52;92.82
64652;HTU21D;51062;45.120;37.660;2023-12-20T00:33:25;7.46;92.77
64652;HTU21D;51062;45.120;37.660;2023-12-20T00:35:51;7.44;92.82
64652;HTU21D;51062;45.120;37.660;2023-12-20T00:38:17;7.42;92.90
64652;HTU21D;51062;45.120;37.660;2023-12-20T00:40:43;7.40;92.92
64652;HTU21D;51062;45.120;37.660;2023-12-20T00:43:09;7.38;92.94
64652;HTU21D;51062;45.120;37.660;2023-12-20T00:45:35;7.35;92.99
64652;HTU21D;51062;45.120;37.660;2023-12-20T00:48:01;7.34;93.00
64652;HTU21D;51062;45.120;37.660;2023-12-20T00:50:27;7.33;93.04
64652;HTU21D;51062;45.120;37.660;2023-12-20T00:52:53;7.35;93.18
64652;HTU21D;51062;45.120;37.660;2023-12-20T00:55:20;7.42;93.37
64652;HTU21D;51062;45.120;37.660;2023-12-20T00:57:46;7.49;93.56
64652;HTU21D;51062;45.120;37.660;2023-12-20T01:00:13;7.59;93.82
64652;HTU21D;51062;45.120;37.660;2023-12-20T01:02:39;7.70;94.01
64652;HTU21D;51062;45.120;37.660;2023-12-20T01:05:06;7.84;94.24
64652;HTU21D;51062;45.120;37.660;2023-12-20T01:07:32;8.00;94.53
64652;HTU21D;51062;45.120;37.660;2023-12-20T01:09:59;8.18;94.78
64652;HTU21D;51062;45.120;37.660;2023-12-20T01:12:25;8.38;94.99
64652;HTU21D;51062;45.120;37.660;2023-12-20T01:14:51;8.60;95.14
64652;HTU21D;51062;45.120;37.660;2023-12-20T01:17:17;8.79;95.23
64652;HTU21D;51062;45.120;37.660;2023-12-20T01:19:42;8.95;95.32
64652;HTU21D;51062;45.120;37.660;2023-12-20T01:22:08;9.10;95.39
64652;HTU21D;51062;45.120;37.660;2023-12-20T01:24:34;9.20;95.48
64652;HTU21D;51062;45.120;37.660;2023-12-20T01:27:00;9.26;95.56
64652;HTU21D;51062;45.120;37.660;2023-12-20T01:29:26;9.33;95.66
64652;HTU21D;51062;45.120;37.660;2023-12-20T01:31:52;9.37;95.72
64652;HTU21D;51062;45.120;37.660;2023-12-20T01:34:18;9.41;95.77
64652;HTU21D;51062;45.120;37.660;2023-12-20T01:36:44;9.45;95.81
64652;HTU21D;51062;45.120;37.660;2023-12-20T01:39:10;9.48;95.84
64652;HTU21D;51062;45.120;37.660;2023-12-20T01:41:35;9.51;95.88
64652;HTU21D;51062;45.120;37.660;2023-12-20T01:44:01;9.53;95.89
64652;HTU21D;51062;45.120;37.660;2023-12-20T01:46:27;9.54;95.91
64652;HTU21D;51062;45.120;37.660;2023-12-20T01:48:53;9.57;95.95
64652;HTU21D;51062;45.120;37.660;2023-12-20T01:51:19;9.61;95.96
64652;HTU21D;51062;45.120;37.660;2023-12-20T01:53:46;9.61;95.95
64652;HTU21D;51062;45.120;37.660;2023-12-20T01:56:12;9.61;95.94
64652;HTU21D;51062;45.120;37.660;2023-12-20T01:58:39;9.60;95.90
64652;HTU21D;51062;45.120;37.660;2023-12-20T02:01:08;9.59;95.88
64652;HTU21D;51062;45.120;37.660;2023-12-20T02:03:34;9.60;95.84
64652;HTU21D;51062;45.120;37.660;2023-12-20T02:06:03;9.57;95.80
64652;HTU21D;51062;45.120;37.660;2023-12-20T02:08:28;9.61;95.88
64652;HTU21D;51062;45.120;37.660;2023-12-20T02:10:55;9.65;95.89
64652;HTU21D;51062;45.120;37.660;2023-12-20T02:13:21;9.67;95.88
64652;HTU21D;51062;45.120;37.660;2023-12-20T02:15:47;9.69;95.87
64652;HTU21D;51062;45.120;37.660;2023-12-20T02:18:13;9.70;95.91
64652;HTU21D;51062;45.120;37.660;2023-12-20T02:20:42;9.76;95.93
64652;HTU21D;51062;45.120;37.660;2023-12-20T02:23:08;9.79;95.96
64652;HTU21D;51062;45.120;37.660;2023-12-20T02:25:34;9.83;95.99
64652;HTU21D;51062;45.120;37.660;2023-12-20T02:28:00;9.86;96.03
64652;HTU21D;51062;45.120;37.660;2023-12-20T02:30:26;9.91;96.04
64652;HTU21D;51062;45.120;37.660;2023-12-20T02:32:52;9.95;96.07
64652;HTU21D;51062;45.120;37.660;2023-12-20T02:35:18;9.96;96.10
64652;HTU21D;51062;45.120;37.660;2023-12-20T02:37:44;9.97;96.13
64652;HTU21D;51062;45.120;37.660;2023-12-20T02:40:10;10.00;96.13
64652;HTU21D;51062;45.120;37.660;2023-12-20T02:42:36;10.01;96.15
64652;HTU21D;51062;45.120;37.660;2023-12-20T02:45:02;10.03;96.15
64652;HTU21D;51062;45.120;37.660;2023-12-20T02:47:27;10.04;96.16
64652;HTU21D;51062;45.120;37.660;2023-12-20T02:49:55;10.06;96.17
64652;HTU21D;51062;45.120;37.660;2023-12-20T02:52:22;10.06;96.17
64652;HTU21D;51062;45.120;37.660;2023-12-20T02:54:49;10.06;96.17
64652;HTU21D;51062;45.120;37.660;2023-12-20T02:57:14;10.07;96.17
64652;HTU21D;51062;45.120;37.660;2023-12-20T02:59:40;10.07;96.16
64652;HTU21D;51062;45.120;37.660;2023-12-20T03:02:06;10.08;96.15
64652;HTU21D;51062;45.120;37.660;2023-12-20T03:04:32;10.07;96.11
64652;HTU21D;51062;45.120;37.660;2023-12-20T03:06:58;10.05;96.10
64652;HTU21D;51062;45.120;37.660;2023-12-20T03:09:24;10.08;96.10
64652;HTU21D;51062;45.120;37.660;2023-12-20T03:11:50;10.09;96.10
64652;HTU21D;51062;45.120;37.660;2023-12-20T03:14:16;10.10;96.12
64652;HTU21D;51062;45.120;37.660;2023-12-20T03:16:42;10.11;96.13
64652;HTU21D;51062;45.120;37.660;2023-12-20T03:19:12;10.13;96.11
64652;HTU21D;51062;45.120;37.660;2023-12-20T03:21:38;10.13;96.10
64652;HTU21D;51062;45.120;37.660;2023-12-20T03:24:03;10.15;96.12
64652;HTU21D;51062;45.120;37.660;2023-12-20T03:26:29;10.16;96.14
64652;HTU21D;51062;45.120;37.660;2023-12-20T03:28:55;10.18;96.13
64652;HTU21D;51062;45.120;37.660;2023-12-20T03:31:21;10.19;96.13
64652;HTU21D;51062;45.120;37.660;2023-12-20T03:33:47;10.18;96.12
64652;HTU21D;51062;45.120;37.660;2023-12-20T03:36:13;10.18;96.10
64652;HTU21D;51062;45.120;37.660;2023-12-20T03:38:39;10.18;96.09
64652;HTU21D;51062;45.120;37.660;2023-12-20T03:41:06;10.19;96.07
64652;HTU21D;51062;45.120;37.660;2023-12-20T03:43:32;10.20;96.07
64652;HTU21D;51062;45.120;37.660;2023-12-20T03:45:58;10.20;96.07
64652;HTU21D;51062;45.120;37.660;2023-12-20T03:48:25;10.21;96.06
64652;HTU21D;51062;45.120;37.660;2023-12-20T03:50:51;10.21;96.04
64652;HTU21D;51062;45.120;37.660;2023-12-20T03:53:17;10.22;96.04
64652;HTU21D;51062;45.120;37.660;2023-12-20T03:55:43;10.22;96.06
64652;HTU21D;51062;45.120;37.660;2023-12-20T03:58:09;10.23;96.06
64652;HTU21D;51062;45.120;37.660;2023-12-20T04:00:35;10.25;96.04
64652;HTU21D;51062;45.120;37.660;2023-12-20T04:03:01;10.24;96.05
64652;HTU21D;51062;45.120;37.660;2023-12-20T04:05:27;10.25;96.06
64652;HTU21D;51062;45.120;37.660;2023-12-20T04:07:52;10.27;96.04
64652;HTU21D;51062;45.120;37.660;2023-12-20T04:10:18;10.26;96.02
64652;HTU21D;51062;45.120;37.660;2023-12-20T04:12:44;0.00;96.03
64652;HTU21D;51062;45.120;37.660;2023-12-20T04:15:10;10.25;96.01
64652;HTU21D;51062;45.120;37.660;2023-12-20T04:17:37;10.26;96.01
64652;HTU21D;51062;45.120;37.660;2023-12-20T04:20:03;10.26;95.98
64652;HTU21D;51062;45.120;37.660;2023-12-20T04:22:29;10.25;95.95
64652;HTU21D;51062;45.120;37.660;2023-12-20T04:24:55;10.25;95.91
64652;HTU21D;51062;45.120;37.660;2023-12-20T04:27:21;10.25;95.89
64652;HTU21D;51062;45.120;37.660;2023-12-20T04:29:47;10.25;95.88
64652;HTU21D;51062;45.120;37.660;2023-12-20T04:32:13;10.24;95.88
64652;HTU21D;51062;45.120;37.660;2023-12-20T04:34:39;10.26;95.86
64652;HTU21D;51062;45.120;37.660;2023-12-20T04:37:05;10.26;95.84
64652;HTU21D;51062;45.120;37.660;2023-12-20T04:39:30;10.25;95.81
64652;HTU21D;51062;45.120;37.660;2023-12-20T04:41:56;10.25;95.80
64652;HTU21D;51062;45.120;37.660;2023-12-20T04:44:22;10.26;95.78
64652;HTU21D;51062;45.120;37.660;2023-12-20T04:46:49;10.27;95.78
64652;HTU21D;51062;45.120;37.660;2023-12-20T04:49:15;10.27;95.76
64652;HTU21D;51062;45.120;37.660;2023-12-20T04:51:41;10.28;95.72
64652;HTU21D;51062;45.120;37.660;2023-12-20T04:54:07;10.27;95.69
64652;HTU21D;51062;45.120;37.660;2023-12-20T04:56:33;10.26;95.70
64652;HTU21D;51062;45.120;37.660;2023-12-20T04:58:59;10.28;95.68
64652;HTU21D;51062;45.120;37.660;2023-12-20T05:01:25;10.28;95.66
64652;HTU21D;51062;45.120;37.660;2023-12-20T05:03:51;10.28;95.65
64652;HTU21D;51062;45.120;37.660;2023-12-20T05:06:17;10.28;95.62
64652;HTU21D;51062;45.120;37.660;2023-12-20T05:08:43;10.29;95.63
64652;HTU21D;51062;45.120;37.660;2023-12-20T05:11:09;10.29;95.69
64652;HTU21D;51062;45.120;37.660;2023-12-20T05:13:35;10.31;95.70
64652;HTU21D;51062;45.120;37.660;2023-12-20T05:16:01;10.35;95.71
64652;HTU21D;51062;45.120;37.660;2023-12-20T05:18:27;10.36;95.72
64652;HTU21D;51062;45.120;37.660;2023-12-20T05:20:53;10.38;95.72
64652;HTU21D;51062;45.120;37.660;2023-12-20T05:23:19;10.41;95.72
64652;HTU21D;51062;45.120;37.660;2023-12-20T05:25:46;10.44;95.72
64652;HTU21D;51062;45.120;37.660;2023-12-20T05:28:11;10.51;95.75
64652;HTU21D;51062;45.120;37.660;2023-12-20T05:30:37;10.57;95.79
64652;HTU21D;51062;45.120;37.660;2023-12-20T05:33:03;10.63;95.80
64652;HTU21D;51062;45.120;37.660;2023-12-20T05:35:29;10.68;95.80
64652;HTU21D;51062;45.120;37.660;2023-12-20T05:37:55;10.73;95.87
64652;HTU21D;51062;45.120;37.660;2023-12-20T05:40:21;10.78;95.89
64652;HTU21D;51062;45.120;37.660;2023-12-20T05:42:47;10.85;95.88
64652;HTU21D;51062;45.120;37.660;2023-12-20T05:45:14;11.14;95.48
64652;HTU21D;51062;45.120;37.660;2023-12-20T05:47:40;11.79;94.27
64652;HTU21D;51062;45.120;37.660;2023-12-20T05:50:06;12.41;92.99
64652;HTU21D;51062;45.120;37.660;2023-12-20T05:52:32;12.69;92.31
64652;HTU21D;51062;45.120;37.660;2023-12-20T05:54:58;12.64;92.24
64652;HTU21D;51062;45.120;37.660;2023-12-20T05:57:27;12.40;92.82
64652;HTU21D;51062;45.120;37.660;2023-12-20T05:59:53;12.12;93.41
64652;HTU21D;51062;45.120;37.660;2023-12-20T06:02:19;11.88;93.83
64652;HTU21D;51062;45.120;37.660;2023-12-20T06:04:45;11.69;94.18
64652;HTU21D;51062;45.120;37.660;2023-12-20T06:07:12;11.55;94.42
64652;HTU21D;51062;45.120;37.660;2023-12-20T06:09:38;11.43;94.56
64652;HTU21D;51062;45.120;37.660;2023-12-20T06:12:04;11.34;94.69
64652;HTU21D;51062;45.120;37.660;2023-12-20T06:14:30;11.25;94.82
64652;HTU21D;51062;45.120;37.660;2023-12-20T06:16:57;11.19;94.93
64652;HTU21D;51062;45.120;37.660;2023-12-20T06:19:23;11.14;95.04
64652;HTU21D;51062;45.120;37.660;2023-12-20T06:21:48;11.10;95.13
64652;HTU21D;51062;45.120;37.660;2023-12-20T06:24:14;11.08;95.20
64652;HTU21D;51062;45.120;37.660;2023-12-20T06:26:40;11.07;95.26
64652;HTU21D;51062;45.120;37.660;2023-12-20T06:29:06;11.03;95.34
64652;HTU21D;51062;45.120;37.660;2023-12-20T06:31:32;11.04;95.43
64652;HTU21D;51062;45.120;37.660;2023-12-20T06:33:59;11.04;95.46
64652;HTU21D;51062;45.120;37.660;2023-12-20T06:36:26;11.07;95.52
64652;HTU21D;51062;45.120;37.660;2023-12-20T06:38:52;11.07;95.58
64652;HTU21D;51062;45.120;37.660;2023-12-20T06:41:18;11.09;95.62
64652;HTU21D;51062;45.120;37.660;2023-12-20T06:43:44;11.11;95.67
64652;HTU21D;51062;45.120;37.660;2023-12-20T06:46:10;11.13;95.70
64652;HTU21D;51062;45.120;37.660;2023-12-20T06:48:36;11.17;95.75
64652;HTU21D;51062;45.120;37.660;2023-12-20T06:51:02;11.22;95.80
64652;HTU21D;51062;45.120;37.660;2023-12-20T06:53:28;11.27;95.81
64652;HTU21D;51062;45.120;37.660;2023-12-20T06:55:54;11.30;95.83
64652;HTU21D;51062;45.120;37.660;2023-12-20T06:58:22;11.34;95.84
64652;HTU21D;51062;45.120;37.660;2023-12-20T07:00:48;11.37;95.88
64652;HTU21D;51062;45.120;37.660;2023-12-20T07:03:14;11.41;95.91
64652;HTU21D;51062;45.120;37.660;2023-12-20T07:05:41;11.47;95.92
64652;HTU21D;51062;45.120;37.660;2023-12-20T07:08:07;11.63;95.78
64652;HTU21D;51062;45.120;37.660;2023-12-20T07:10:33;11.90;95.30
64652;HTU21D;51062;45.120;37.660;2023-12-20T07:12:59;12.58;93.73
64652;HTU21D;51062;45.120;37.660;2023-12-20T07:15:25;13.24;92.17
64652;HTU21D;51062;45.120;37.660;2023-12-20T07:17:52;14.04;90.28
64652;HTU21D;51062;45.120;37.660;2023-12-20T07:20:18;14.77;88.67
64652;HTU21D;51062;45.120;37.660;2023-12-20T07:22:44;15.57;86.77
64652;HTU21D;51062;45.120;37.660;2023-12-20T07:25:10;16.30;85.23
64652;HTU21D;51062;45.120;37.660;2023-12-20T07:27:36;16.94;83.87
64652;HTU21D;51062;45.120;37.660;2023-12-20T07:30:02;17.56;82.65
64652;HTU21D;51062;45.120;37.660;2023-12-20T07:32:28;17.83;82.26
64652;HTU21D;51062;45.120;37.660;2023-12-20T07:34:54;17.96;82.47
64652;HTU21D;51062;45.120;37.660;2023-12-20T07:37:20;18.15;82.19
64652;HTU21D;51062;45.120;37.660;2023-12-20T07:39:46;18.18;82.26
64652;HTU21D;51062;45.120;37.660;2023-12-20T07:42:12;18.20;82.20
64652;HTU21D;51062;45.120;37.660;2023-12-20T07:44:38;18.26;81.67
64652;HTU21D;51062;45.120;37.660;2023-12-20T07:47:04;18.11;81.71
64652;HTU21D;51062;45.120;37.660;2023-12-20T07:49:30;17.90;81.98
64652;HTU21D;51062;45.120;37.660;2023-12-20T07:51:57;17.84;82.01
64652;HTU21D;51062;45.120;37.660;2023-12-20T07:54:23;17.82;81.50
64652;HTU21D;51062;45.120;37.660;2023-12-20T07:56:49;17.84;81.09
64652;HTU21D;51062;45.120;37.660;2023-12-20T07:59:15;17.94;80.64
64652;HTU21D;51062;45.120;37.660;2023-12-20T08:01:40;17.84;81.01
64652;HTU21D;51062;45.120;37.660;2023-12-20T08:04:07;17.80;81.18
64652;HTU21D;51062;45.120;37.660;2023-12-20T08:06:33;17.83;80.85
64652;HTU21D;51062;45.120;37.660;2023-12-20T08:08:59;17.82;80.67
64652;HTU21D;51062;45.120;37.660;2023-12-20T08:11:25;17.97;80.17
64652;HTU21D;51062;45.120;37.660;2023-12-20T08:13:51;17.94;80.15
64652;HTU21D;51062;45.120;37.660;2023-12-20T08:16:17;17.84;80.43
64652;HTU21D;51062;45.120;37.660;2023-12-20T08:18:43;17.52;81.30
64652;HTU21D;51062;45.120;37.660;2023-12-20T08:21:09;17.14;82.26
64652;HTU21D;51062;45.120;37.660;2023-12-20T08:23:35;16.55;83.70
64652;HTU21D;51062;45.120;37.660;2023-12-20T08:26:07;15.91;86.32
64652;HTU21D;51062;45.120;37.660;2023-12-20T08:28:33;15.36;88.62
64652;HTU21D;51062;45.120;37.660;2023-12-20T08:31:00;14.98;90.30
64652;HTU21D;51062;45.120;37.660;2023-12-20T08:33:26;14.75;91.54
64652;HTU21D;51062;45.120;37.660;2023-12-20T08:35:51;14.58;92.37
64652;HTU21D;51062;45.120;37.660;2023-12-20T08:38:17;14.44;92.90
64652;HTU21D;51062;45.120;37.660;2023-12-20T08:40:44;14.37;93.27
64652;HTU21D;51062;45.120;37.660;2023-12-20T08:43:09;14.30;93.53
64652;HTU21D;51062;45.120;37.660;2023-12-20T08:45:36;14.27;93.73
64652;HTU21D;51062;45.120;37.660;2023-12-20T08:48:02;14.24;93.88
64652;HTU21D;51062;45.120;37.660;2023-12-20T08:50:28;14.21;94.02
64652;HTU21D;51062;45.120;37.660;2023-12-20T08:52:54;14.20;94.07
64652;HTU21D;51062;45.120;37.660;2023-12-20T08:55:20;14.20;94.14
64652;HTU21D;51062;45.120;37.660;2023-12-20T08:57:46;14.09;94.27
64652;HTU21D;51062;45.120;37.660;2023-12-20T09:00:12;13.98;94.49
64652;HTU21D;51062;45.120;37.660;2023-12-20T09:02:39;13.88;94.61
64652;HTU21D;51062;45.120;37.660;2023-12-20T09:05:05;13.82;94.87
64652;HTU21D;51062;45.120;37.660;2023-12-20T09:07:31;13.83;94.94
64652;HTU21D;51062;45.120;37.660;2023-12-20T09:09:57;13.82;94.99
64652;HTU21D;51062;45.120;37.660;2023-12-20T09:12:23;13.82;95.07
64652;HTU21D;51062;45.120;37.660;2023-12-20T09:14:50;13.81;95.07
64652;HTU21D;51062;45.120;37.660;2023-12-20T09:17:16;13.80;95.14
64652;HTU21D;51062;45.120;37.660;2023-12-20T09:19:43;13.73;95.07
64652;HTU21D;51062;45.120;37.660;2023-12-20T09:22:12;13.60;95.07
64652;HTU21D;51062;45.120;37.660;2023-12-20T09:24:38;13.48;95.04
64652;HTU21D;51062;45.120;37.660;2023-12-20T09:27:07;13.40;95.16
64652;HTU21D;51062;45.120;37.660;2023-12-20T09:29:33;13.39;95.34
64652;HTU21D;51062;45.120;37.660;2023-12-20T09:31:59;13.36;95.35
64652;HTU21D;51062;45.120;37.660;2023-12-20T09:34:25;13.36;95.49
64652;HTU21D;51062;45.120;37.660;2023-12-20T09:36:51;13.39;95.58
64652;HTU21D;51062;45.120;37.660;2023-12-20T09:39:18;13.44;95.60
64652;HTU21D;51062;45.120;37.660;2023-12-20T09:42:00;13.45;95.60
64652;HTU21D;51062;45.120;37.660;2023-12-20T09:44:26;13.44;95.63
64652;HTU21D;51062;45.120;37.660;2023-12-20T09:46:52;13.40;95.69
64652;HTU21D;51062;45.120;37.660;2023-12-20T09:49:18;13.37;95.76
64652;HTU21D;51062;45.120;37.660;2023-12-20T09:51:44;13.35;95.75
64652;HTU21D;51062;45.120;37.660;2023-12-20T09:54:15;13.31;95.84
64652;HTU21D;51062;45.120;37.660;2023-12-20T09:56:41;13.34;95.94
64652;HTU21D;51062;45.120;37.660;2023-12-20T09:59:07;13.35;95.94
64652;HTU21D;51062;45.120;37.660;2023-12-20T10:01:33;13.38;95.97
64652;HTU21D;51062;45.120;37.660;2023-12-20T10:04:00;13.38;95.96
64652;HTU21D;51062;45.120;37.660;2023-12-20T10:06:26;13.36;95.97
64652;HTU21D;51062;45.120;37.660;2023-12-20T10:08:52;13.36;95.99
64652;HTU21D;51062;45.120;37.660;2023-12-20T10:11:18;13.31;95.93
64652;HTU21D;51062;45.120;37.660;2023-12-20T10:13:45;13.27;96.01
64652;HTU21D;51062;45.120;37.660;2023-12-20T10:16:13;13.23;96.05
64652;HTU21D;51062;45.120;37.660;2023-12-20T10:18:39;0.00;96.09
64652;HTU21D;51062;45.120;37.660;2023-12-20T10:21:05;13.17;96.00
64652;HTU21D;51062;45.120;37.660;2023-12-20T10:23:31;13.15;96.04
64652;HTU21D;51062;45.120;37.660;2023-12-20T10:25:58;13.12;96.10
64652;HTU21D;51062;45.120;37.660;2023-12-20T10:28:24;13.11;96.10
64652;HTU21D;51062;45.120;37.660;2023-12-20T10:30:53;13.10;96.16
64652;HTU21D;51062;45.120;37.660;2023-12-20T10:33:26;13.14;96.17
64652;HTU21D;51062;45.120;37.660;2023-12-20T10:35:52;13.16;96.15
64652;HTU21D;51062;45.120;37.660;2023-12-20T10:38:19;13.11;96.07
64652;HTU21D;51062;45.120;37.660;2023-12-20T10:40:45;13.06;96.07
64652;HTU21D;51062;45.120;37.660;2023-12-20T10:43:12;13.05;96.17
64652;HTU21D;51062;45.120;37.660;2023-12-20T10:45:38;13.10;96.19
64652;HTU21D;51062;45.120;37.660;2023-12-20T10:48:03;13.11;96.16
64652;HTU21D;51062;45.120;37.660;2023-12-20T10:50:30;13.08;96.11
64652;HTU21D;51062;45.120;37.660;2023-12-20T10:52:57;13.08;96.13
64652;HTU21D;51062;45.120;37.660;2023-12-20T10:55:23;13.07;96.15
64652;HTU21D;51062;45.120;37.660;2023-12-20T10:57:49;13.08;96.20
64652;HTU21D;51062;45.120;37.660;2023-12-20T11:00:17;13.11;96.21
64652;HTU21D;51062;45.120;37.660;2023-12-20T11:02:43;13.14;96.20
64652;HTU21D;51062;45.120;37.660;2023-12-20T11:07:52;13.11;96.17
64652;HTU21D;51062;45.120;37.660;2023-12-20T11:10:29;13.12;96.19
64652;HTU21D;51062;45.120;37.660;2023-12-20T11:13:03;13.12;96.20
64652;HTU21D;51062;45.120;37.660;2023-12-20T11:15:37;13.11;96.26
64652;HTU21D;51062;45.120;37.660;2023-12-20T11:18:03;13.14;96.30
64652;HTU21D;51062;45.120;37.660;2023-12-20T11:20:39;13.14;96.29
64652;HTU21D;51062;45.120;37.660;2023-12-20T11:23:06;0.00;96.29
64652;HTU21D;51062;45.120;37.660;2023-12-20T11:25:47;13.11;96.28
64652;HTU21D;51062;45.120;37.660;2023-12-20T11:28:20;13.03;96.19
64652;HTU21D;51062;45.120;37.660;2023-12-20T11:30:47;12.95;96.07
64652;HTU21D;51062;45.120;37.660;2023-12-20T11:33:15;12.85;95.92
64652;HTU21D;51062;45.120;37.660;2023-12-20T11:35:45;12.74;95.88
64652;HTU21D;51062;45.120;37.660;2023-12-20T11:38:12;12.69;95.92
64652;HTU21D;51062;45.120;37.660;2023-12-20T11:40:41;12.64;95.84
64652;HTU21D;51062;45.120;37.660;2023-12-20T11:43:07;12.58;95.78
64652;HTU21D;51062;45.120;37.660;2023-12-20T11:45:33;12.53;95.73
64652;HTU21D;51062;45.120;37.660;2023-12-20T11:48:00;12.50;95.70
64652;HTU21D;51062;45.120;37.660;2023-12-20T11:50:27;12.46;95.57
64652;HTU21D;51062;45.120;37.660;2023-12-20T11:52:55;12.40;95.57
64652;HTU21D;51062;45.120;37.660;2023-12-20T11:55:21;12.41;95.65
64652;HTU21D;51062;45.120;37.660;2023-12-20T11:57:47;12.42;95.69
64652;HTU21D;51062;45.120;37.660;2023-12-20T12:00:14;12.43;95.72
64652;HTU21D;51062;45.120;37.660;2023-12-20T12:02:40;12.45;95.74
64652;HTU21D;51062;45.120;37.660;2023-12-20T12:05:06;12.43;95.74
64652;HTU21D;51062;45.120;37.660;2023-12-20T12:07:33;12.43;95.69
64652;HTU21D;51062;45.120;37.660;2023-12-20T12:09:59;12.42;95.70
64652;HTU21D;51062;45.120;37.660;2023-12-20T12:12:25;12.41;95.74
64652;HTU21D;51062;45.120;37.660;2023-12-20T12:14:52;12.43;95.75
64652;HTU21D;51062;45.120;37.660;2023-12-20T12:17:19;12.43;95.73
64652;HTU21D;51062;45.120;37.660;2023-12-20T12:19:44;12.44;95.76
64652;HTU21D;51062;45.120;37.660;2023-12-20T12:22:14;12.44;95.72
64652;HTU21D;51062;45.120;37.660;2023-12-20T12:24:41;12.41;95.72
64652;HTU21D;51062;45.120;37.660;2023-12-20T12:27:07;12.37;95.69
64652;HTU21D;51062;45.120;37.660;2023-12-20T12:29:34;12.35;95.68
64652;HTU21D;51062;45.120;37.660;2023-12-20T12:32:00;12.32;95.65
64652;HTU21D;51062;45.120;37.660;2023-12-20T12:34:29;12.30;95.63
64652;HTU21D;51062;45.120;37.660;2023-12-20T12:36:55;12.28;95.60
64652;HTU21D;51062;45.120;37.660;2023-12-20T12:39:22;12.25;95.51
64652;HTU21D;51062;45.120;37.660;2023-12-20T12:41:49;12.21;95.49
64652;HTU21D;51062;45.120;37.660;2023-12-20T12:44:15;12.19;95.47
64652;HTU21D;51062;45.120;37.660;2023-12-20T12:46:41;12.16;95.45
64652;HTU21D;51062;45.120;37.660;2023-12-20T12:49:07;12.13;95.33
64652;HTU21D;51062;45.120;37.660;2023-12-20T12:51:33;12.08;95.30
64652;HTU21D;51062;45.120;37.660;2023-12-20T12:53:59;12.03;95.19
64652;HTU21D;51062;45.120;37.660;2023-12-20T12:56:25;11.99;95.07
64652;HTU21D;51062;45.120;37.660;2023-12-20T12:58:51;11.94;94.98
64652;HTU21D;51062;45.120;37.660;2023-12-20T13:01:17;11.90;94.88
64652;HTU21D;51062;45.120;37.660;2023-12-20T13:03:43;11.86;94.84
64652;HTU21D;51062;45.120;37.660;2023-12-20T13:06:09;11.83;94.73
64652;HTU21D;51062;45.120;37.660;2023-12-20T13:08:35;11.76;94.57
64652;HTU21D;51062;45.120;37.660;2023-12-20T13:11:00;11.71;94.43
64652;HTU21D;51062;45.120;37.660;2023-12-20T13:13:30;11.63;94.21
64652;HTU21D;51062;45.120;37.660;2023-12-20T13:15:56;11.59;94.17
64652;HTU21D;51062;45.120;37.660;2023-12-20T13:18:24;11.54;94.11
64652;HTU21D;51062;45.120;37.660;2023-12-20T13:20:50;11.48;94.07
64652;HTU21D;51062;45.120;37.660;2023-12-20T13:23:17;11.42;93.93
64652;HTU21D;51062;45.120;37.660;2023-12-20T13:25:43;11.39;94.07
64652;HTU21D;51062;45.120;37.660;2023-12-20T13:28:11;11.36;94.00
64652;HTU21D;51062;45.120;37.660;2023-12-20T13:30:38;11.30;93.84
64652;HTU21D;51062;45.120;37.660;2023-12-20T13:33:04;11.22;93.64
64652;HTU21D;51062;45.120;37.660;2023-12-20T13:35:31;11.13;93.33
64652;HTU21D;51062;45.120;37.660;2023-12-20T13:37:58;11.04;92.95
64652;HTU21D;51062;45.120;37.660;2023-12-20T13:40:24;10.95;92.74
64652;HTU21D;51062;45.120;37.660;2023-12-20T13:42:50;10.87;92.69
64652;HTU21D;51062;45.120;37.660;2023-12-20T13:45:16;10.80;92.35
64652;HTU21D;51062;45.120;37.660;2023-12-20T13:47:42;10.73;92.32
64652;HTU21D;51062;45.120;37.660;2023-12-20T13:50:08;10.64;92.08
64652;HTU21D;51062;45.120;37.660;2023-12-20T13:52:35;10.55;91.79
64652;HTU21D;51062;45.120;37.660;2023-12-20T13:55:02;10.48;91.67
64652;HTU21D;51062;45.120;37.660;2023-12-20T13:57:34;10.40;91.47
64652;HTU21D;51062;45.120;37.660;2023-12-20T14:00:03;10.34;91.40
64652;HTU21D;51062;45.120;37.660;2023-12-20T14:02:32;10.27;91.18
64652;HTU21D;51062;45.120;37.660;2023-12-20T14:04:59;10.18;90.77
64652;HTU21D;51062;45.120;37.660;2023-12-20T14:07:24;10.07;90.41
64652;HTU21D;51062;45.120;37.660;2023-12-20T14:09:51;9.97;90.07
64652;HTU21D;51062;45.120;37.660;2023-12-20T14:12:37;9.88;89.81
64652;HTU21D;51062;45.120;37.660;2023-12-20T14:15:05;9.79;89.75
64652;HTU21D;51062;45.120;37.660;2023-12-20T14:17:39;9.74;89.65
64652;HTU21D;51062;45.120;37.660;2023-12-20T14:20:08;9.67;89.67
64652;HTU21D;51062;45.120;37.660;2023-12-20T14:22:39;9.66;89.84
64652;HTU21D;51062;45.120;37.660;2023-12-20T14:25:25;9.62;90.03
64652;HTU21D;51062;45.120;37.660;2023-12-20T14:27:52;9.62;90.13
64652;HTU21D;51062;45.120;37.660;2023-12-20T14:30:40;9.56;89.83
64652;HTU21D;51062;45.120;37.660;2023-12-20T14:33:06;9.49;89.57
64652;HTU21D;51062;45.120;37.660;2023-12-20T14:35:32;9.44;89.66
64652;HTU21D;51062;45.120;37.660;2023-12-20T14:37:58;9.40;89.70
64652;HTU21D;51062;45.120;37.660;2023-12-20T14:40:24;9.35;89.55
64652;HTU21D;51062;45.120;37.660;2023-12-20T14:42:50;9.33;89.89
64652;HTU21D;51062;45.120;37.660;2023-12-20T14:45:17;9.32;89.89
64652;HTU21D;51062;45.120;37.660;2023-12-20T14:47:43;9.29;89.70
64652;HTU21D;51062;45.120;37.660;2023-12-20T14:50:09;9.23;89.41
64652;HTU21D;51062;45.120;37.660;2023-12-20T14:52:37;9.17;89.09
64652;HTU21D;51062;45.120;37.660;2023-12-20T14:55:03;9.10;88.95
64652;HTU21D;51062;45.120;37.660;2023-12-20T14:57:30;9.06;88.88
64652;HTU21D;51062;45.120;37.660;2023-12-20T14:59:56;9.01;88.75
64652;HTU21D;51062;45.120;37.660;2023-12-20T15:02:22;8.96;88.68
64652;HTU21D;51062;45.120;37.660;2023-12-20T15:04:48;8.91;88.60